createdAt,value
2022-07-25T00:01:55.813Z,29.60
2022-07-25T00:04:24.282Z,29.50
2022-07-25T00:06:51.680Z,29.40
2022-07-25T00:09:19.069Z,29.30
2022-07-25T00:11:46.396Z,29.40
2022-07-25T00:14:13.904Z,29.30
2022-07-25T00:16:41.332Z,29.30
2022-07-25T00:19:08.604Z,29.30
2022-07-25T00:21:36.083Z,29.20
2022-07-25T00:24:03.835Z,29.20
2022-07-25T00:26:33.532Z,29.20
2022-07-25T00:29:04.007Z,29.20
2022-07-25T00:31:31.459Z,29.10
2022-07-25T00:33:58.787Z,29.10
2022-07-25T00:36:26.086Z,29.10
2022-07-25T00:38:53.372Z,29.10
2022-07-25T00:41:20.759Z,29.00
2022-07-25T00:43:48.196Z,28.90
2022-07-25T00:46:18.956Z,28.70
2022-07-25T00:48:47.068Z,28.60
2022-07-25T00:51:16.298Z,28.60
2022-07-25T00:53:44.769Z,28.60
2022-07-25T00:56:12.165Z,28.60
2022-07-25T00:58:39.423Z,28.70
2022-07-25T01:01:06.878Z,28.70
2022-07-25T01:03:34.248Z,28.70
2022-07-25T01:06:01.740Z,28.70
2022-07-25T01:08:29.294Z,28.60
2022-07-25T01:10:56.569Z,28.60
2022-07-25T01:13:23.902Z,28.60
2022-07-25T01:15:51.223Z,28.60
2022-07-25T01:18:18.602Z,28.70
2022-07-25T01:20:45.954Z,28.70
2022-07-25T01:23:13.217Z,28.60
2022-07-25T01:25:40.525Z,28.60
2022-07-25T01:28:08.531Z,28.60
2022-07-25T01:30:35.955Z,28.50
2022-07-25T01:33:06.851Z,28.50
2022-07-25T01:35:36.257Z,28.50
2022-07-25T01:38:06.373Z,28.50
2022-07-25T01:40:33.700Z,28.50
2022-07-25T01:43:00.994Z,28.50
2022-07-25T01:45:28.446Z,28.40
2022-07-25T01:47:55.797Z,28.50
2022-07-25T01:50:23.174Z,28.40
2022-07-25T01:52:50.759Z,28.40
2022-07-25T01:55:18.886Z,28.40
2022-07-25T01:57:49.747Z,28.40
2022-07-25T02:00:18.273Z,28.30
2022-07-25T02:02:46.126Z,28.20
2022-07-25T02:05:16.256Z,28.20
2022-07-25T02:07:43.492Z,28.10
2022-07-25T02:10:10.944Z,28.00
2022-07-25T02:13:06.219Z,27.90
2022-07-25T02:15:33.501Z,27.90
2022-07-25T02:18:00.838Z,27.90
2022-07-25T02:20:28.131Z,27.90
2022-07-25T02:22:55.427Z,27.90
2022-07-25T02:25:22.693Z,27.90
2022-07-25T02:27:50.221Z,27.90
2022-07-25T02:30:17.602Z,27.90
2022-07-25T02:32:44.893Z,27.90
2022-07-25T02:35:12.948Z,28.00
2022-07-25T02:37:41.239Z,28.00
2022-07-25T02:40:09.100Z,28.00
2022-07-25T02:42:36.406Z,28.00
2022-07-25T02:45:04.328Z,28.00
2022-07-25T02:47:31.608Z,28.00
2022-07-25T02:49:58.910Z,28.00
2022-07-25T02:52:26.218Z,28.00
2022-07-25T02:54:53.568Z,28.00
2022-07-25T02:57:20.870Z,28.00
2022-07-25T02:59:48.205Z,28.10
2022-07-25T03:02:15.553Z,28.10
2022-07-25T03:04:42.865Z,28.00
2022-07-25T03:07:10.211Z,28.00
2022-07-25T03:09:37.601Z,28.00
2022-07-25T03:12:05.576Z,28.10
2022-07-25T03:14:32.859Z,28.00
2022-07-25T03:17:00.168Z,27.90
2022-07-25T03:19:27.463Z,27.90
2022-07-25T03:21:54.727Z,27.90
2022-07-25T03:24:22.045Z,27.90
2022-07-25T03:26:49.576Z,28.00
2022-07-25T03:29:16.933Z,28.00
2022-07-25T03:31:44.380Z,28.00
2022-07-25T03:34:11.672Z,28.00
2022-07-25T03:36:39.000Z,27.90
2022-07-25T03:39:06.266Z,27.90
2022-07-25T03:41:33.656Z,28.00
2022-07-25T03:44:00.920Z,28.00
2022-07-25T03:46:28.357Z,28.00
2022-07-25T03:48:55.898Z,28.00
2022-07-25T03:51:23.247Z,28.10
2022-07-25T03:54:02.479Z,28.10
2022-07-25T03:56:49.840Z,28.00
2022-07-25T03:59:21.313Z,28.00
2022-07-25T04:01:50.266Z,28.10
2022-07-25T04:04:19.066Z,28.10
2022-07-25T04:06:47.163Z,28.10
2022-07-25T04:09:15.671Z,28.20
2022-07-25T04:11:43.128Z,28.10
2022-07-25T04:14:10.788Z,28.10
2022-07-25T04:16:38.499Z,28.00
2022-07-25T04:19:08.040Z,27.90
2022-07-25T04:21:36.054Z,27.90
2022-07-25T04:24:03.980Z,28.00
2022-07-25T04:26:31.606Z,27.90
2022-07-25T04:28:59.029Z,27.90
2022-07-25T04:31:26.440Z,28.00
2022-07-25T04:33:53.846Z,28.00
2022-07-25T04:36:21.311Z,28.00
2022-07-25T04:38:48.551Z,27.90
2022-07-25T04:41:16.020Z,27.80
2022-07-25T04:43:48.367Z,27.90
2022-07-25T04:46:20.522Z,27.90
2022-07-25T04:48:48.864Z,27.90
2022-07-25T04:51:17.464Z,28.00
2022-07-25T04:53:44.988Z,28.00
2022-07-25T04:56:12.321Z,28.10
2022-07-25T04:58:39.662Z,28.00
2022-07-25T05:01:07.472Z,28.10
2022-07-25T05:03:34.833Z,28.10
2022-07-25T05:06:02.730Z,28.10
2022-07-25T05:08:30.715Z,28.00
2022-07-25T05:10:58.087Z,28.00
2022-07-25T05:13:25.360Z,28.00
2022-07-25T05:15:52.999Z,28.00
2022-07-25T05:18:20.585Z,28.00
2022-07-25T05:20:47.944Z,28.00
2022-07-25T05:23:15.173Z,28.00
2022-07-25T05:25:42.503Z,27.90
2022-07-25T05:28:09.793Z,27.90
2022-07-25T05:30:39.904Z,27.90
2022-07-25T05:33:07.656Z,27.90
2022-07-25T05:35:35.076Z,27.90
2022-07-25T05:38:02.571Z,28.00
2022-07-25T05:40:29.816Z,28.10
2022-07-25T05:43:00.908Z,28.10
2022-07-25T05:45:30.278Z,28.30
2022-07-25T05:47:57.542Z,28.40
2022-07-25T05:50:24.910Z,28.50
2022-07-25T05:52:52.242Z,28.60
2022-07-25T05:55:19.725Z,28.80
2022-07-25T05:57:47.170Z,28.90
2022-07-25T06:00:17.878Z,29.30
2022-07-25T06:02:45.237Z,29.60
2022-07-25T06:05:12.575Z,29.90
2022-07-25T06:07:39.886Z,30.30
2022-07-25T06:10:07.869Z,30.60
2022-07-25T06:12:36.761Z,30.60
2022-07-25T06:15:05.880Z,30.80
2022-07-25T06:17:33.552Z,31.20
2022-07-25T06:20:00.986Z,31.70
2022-07-25T06:22:29.817Z,32.20
2022-07-25T06:24:57.078Z,32.60
2022-07-25T06:27:29.114Z,33.00
2022-07-25T06:29:56.848Z,33.30
2022-07-25T06:32:24.328Z,33.70
2022-07-25T06:34:51.658Z,33.90
2022-07-25T06:37:18.928Z,34.10
2022-07-25T06:39:46.408Z,34.40
2022-07-25T06:42:13.868Z,34.60
2022-07-25T06:44:41.340Z,34.80
2022-07-25T06:47:12.628Z,34.90
2022-07-25T06:49:44.267Z,35.20
2022-07-25T06:52:11.618Z,35.50
2022-07-25T06:54:39.155Z,35.50
2022-07-25T06:57:06.413Z,35.50
2022-07-25T06:59:33.891Z,35.60
2022-07-25T07:02:01.328Z,35.80
2022-07-25T07:04:28.641Z,36.10
2022-07-25T07:06:55.919Z,36.40
2022-07-25T07:09:23.206Z,36.40
2022-07-25T07:11:50.480Z,36.60
2022-07-25T07:14:17.695Z,36.70
2022-07-25T07:16:45.025Z,36.80
2022-07-25T07:19:14.447Z,36.20
2022-07-25T07:21:42.405Z,36.10
2022-07-25T07:24:22.097Z,36.20
2022-07-25T07:26:51.576Z,35.70
2022-07-25T07:29:19.096Z,36.00
2022-07-25T07:31:46.430Z,36.40
2022-07-25T07:34:16.455Z,36.60
2022-07-25T07:36:44.113Z,36.50
2022-07-25T07:39:11.823Z,36.70
2022-07-25T07:41:39.223Z,36.70
2022-07-25T07:44:06.493Z,37.00
2022-07-25T07:46:33.941Z,37.00
2022-07-25T07:49:01.450Z,37.00
2022-07-25T07:51:28.986Z,37.10
2022-07-25T07:54:14.758Z,37.10
2022-07-25T07:56:42.084Z,37.10
2022-07-25T07:59:10.549Z,37.20
2022-07-25T08:01:38.084Z,37.30
2022-07-25T08:04:05.717Z,37.40
2022-07-25T08:06:33.051Z,37.80
2022-07-25T08:09:00.354Z,37.70
2022-07-25T08:11:27.847Z,37.50
2022-07-25T08:13:55.640Z,37.40
2022-07-25T08:16:23.284Z,37.60
2022-07-25T08:18:50.639Z,37.80
2022-07-25T08:21:17.920Z,37.90
2022-07-25T08:23:47.090Z,37.80
2022-07-25T08:26:14.367Z,37.80
2022-07-25T08:28:42.671Z,37.80
2022-07-25T08:31:10.373Z,37.90
2022-07-25T08:33:38.566Z,37.90
2022-07-25T08:36:06.139Z,37.70
2022-07-25T08:38:35.349Z,37.70
2022-07-25T08:41:03.594Z,38.00
2022-07-25T08:43:34.961Z,38.20
2022-07-25T08:46:03.933Z,38.10
2022-07-25T08:48:31.592Z,37.70
2022-07-25T08:51:00.387Z,37.80
2022-07-25T08:53:33.310Z,37.70
2022-07-25T08:56:11.518Z,37.90
2022-07-25T08:58:41.704Z,37.90
2022-07-25T09:01:11.494Z,38.10
2022-07-25T09:03:39.108Z,38.30
2022-07-25T09:06:21.668Z,38.60
2022-07-25T09:08:54.409Z,38.40
2022-07-25T09:11:36.777Z,38.40
2022-07-25T09:14:07.447Z,38.40
2022-07-25T09:16:40.448Z,38.60
2022-07-25T09:19:10.624Z,38.70
2022-07-25T09:21:39.803Z,38.90
2022-07-25T09:24:13.257Z,38.80
2022-07-25T09:26:55.857Z,38.60
2022-07-25T09:29:32.155Z,38.30
2022-07-25T09:32:00.607Z,38.10
2022-07-25T09:34:40.028Z,38.30
2022-07-25T09:37:13.099Z,38.60
2022-07-25T09:39:48.969Z,38.90
2022-07-25T09:42:34.444Z,39.00
2022-07-25T09:45:12.461Z,38.80
2022-07-25T09:47:55.828Z,38.70
2022-07-25T09:50:24.764Z,38.70
2022-07-25T09:52:53.535Z,38.50
2022-07-25T09:55:21.895Z,38.30
2022-07-25T09:57:49.895Z,38.20
2022-07-25T10:00:21.440Z,38.50
2022-07-25T10:02:50.840Z,38.60
2022-07-25T10:05:56.690Z,38.50
2022-07-25T10:08:24.731Z,38.20
2022-07-25T10:10:52.098Z,38.10
2022-07-25T10:13:30.413Z,38.10
2022-07-25T10:15:58.525Z,37.80
2022-07-25T10:18:30.178Z,37.80
2022-07-25T10:21:24.836Z,37.90
2022-07-25T10:24:00.066Z,37.90
2022-07-25T10:26:27.551Z,37.80
2022-07-25T10:28:58.714Z,37.90
2022-07-25T10:31:27.782Z,37.70
2022-07-25T10:34:00.462Z,37.70
2022-07-25T10:36:42.098Z,38.00
2022-07-25T10:39:12.249Z,38.20
2022-07-25T10:41:49.130Z,38.30
2022-07-25T10:44:19.004Z,38.20
2022-07-25T10:46:47.072Z,38.20
2022-07-25T10:49:31.717Z,38.50
2022-07-25T10:52:11.784Z,38.40
2022-07-25T10:54:39.434Z,38.10
2022-07-25T10:57:16.180Z,37.60
2022-07-25T10:59:43.540Z,37.60
2022-07-25T11:02:18.123Z,37.70
2022-07-25T11:05:02.519Z,37.70
2022-07-25T11:07:36.103Z,37.80
2022-07-25T11:10:05.653Z,37.70
2022-07-25T11:12:33.438Z,37.70
2022-07-25T11:15:03.092Z,37.80
2022-07-25T11:17:30.449Z,37.90
2022-07-25T11:20:01.655Z,37.90
2022-07-25T11:22:30.314Z,37.90
2022-07-25T11:24:58.470Z,38.00
2022-07-25T11:27:31.477Z,38.10
2022-07-25T11:30:16.667Z,38.20
2022-07-25T11:32:49.765Z,37.90
2022-07-25T11:35:25.375Z,37.60
2022-07-25T11:38:13.658Z,37.40
2022-07-25T11:40:47.400Z,37.40
2022-07-25T11:43:22.927Z,37.50
2022-07-25T11:46:18.178Z,37.40
2022-07-25T11:48:45.911Z,37.60
2022-07-25T11:51:19.350Z,37.50
2022-07-25T11:53:51.358Z,37.50
2022-07-25T11:59:10.199Z,37.30
2022-07-25T12:01:40.633Z,37.30
2022-07-25T12:04:25.784Z,37.20
2022-07-25T12:07:04.501Z,37.20
2022-07-25T12:09:31.817Z,37.10
2022-07-25T12:12:04.327Z,37.10
2022-07-25T12:14:43.209Z,37.20
2022-07-25T12:17:10.591Z,37.30
2022-07-25T12:19:41.121Z,37.50
2022-07-25T12:22:08.583Z,37.40
2022-07-25T12:24:36.056Z,37.50
2022-07-25T12:27:03.392Z,37.40
2022-07-25T12:29:30.603Z,37.40
2022-07-25T12:31:57.861Z,37.50
2022-07-25T12:34:25.195Z,37.50
2022-07-25T12:36:53.013Z,37.60
2022-07-25T12:39:20.609Z,37.60
2022-07-25T12:41:47.823Z,37.60
2022-07-25T12:44:15.241Z,37.60
2022-07-25T12:46:48.808Z,37.50
2022-07-25T12:49:17.067Z,37.00
2022-07-25T12:51:44.631Z,36.90
2022-07-25T12:54:12.222Z,36.90
2022-07-25T12:56:39.640Z,37.00
2022-07-25T12:59:07.607Z,36.90
2022-07-25T13:01:35.323Z,36.90
2022-07-25T13:04:02.799Z,36.80
2022-07-25T13:06:30.034Z,36.80
2022-07-25T13:09:00.668Z,36.80
2022-07-25T13:11:27.917Z,37.00
2022-07-25T13:13:55.191Z,37.20
2022-07-25T13:16:22.926Z,37.30
2022-07-25T13:19:44.434Z,37.20
2022-07-25T13:22:11.927Z,37.00
2022-07-25T13:24:39.363Z,37.20
2022-07-25T13:27:07.516Z,37.40
2022-07-25T13:29:35.259Z,37.40
2022-07-25T13:32:02.797Z,37.40
2022-07-25T13:34:31.177Z,37.50
2022-07-25T13:36:58.503Z,37.50
2022-07-25T13:39:27.099Z,37.50
2022-07-25T13:41:54.400Z,37.40
2022-07-25T13:44:21.652Z,37.50
2022-07-25T13:46:51.912Z,37.50
2022-07-25T13:49:19.367Z,37.50
2022-07-25T13:51:47.508Z,37.40
2022-07-25T13:54:14.802Z,37.40
2022-07-25T13:56:42.513Z,37.30
2022-07-25T13:59:11.157Z,37.40
2022-07-25T14:01:41.133Z,37.30
2022-07-25T14:04:08.434Z,37.20
2022-07-25T14:06:35.841Z,37.20
2022-07-25T14:09:03.735Z,37.10
2022-07-25T14:11:31.496Z,37.00
2022-07-25T14:13:58.852Z,37.10
2022-07-25T14:16:26.615Z,37.20
2022-07-25T14:18:55.689Z,37.20
2022-07-25T14:21:24.074Z,37.10
2022-07-25T14:23:53.615Z,37.00
2022-07-25T14:26:20.994Z,36.90
2022-07-25T14:28:48.335Z,36.90
2022-07-25T14:31:15.775Z,36.90
2022-07-25T14:33:43.240Z,36.90
2022-07-25T14:36:11.114Z,36.90
2022-07-25T14:38:38.789Z,36.90
2022-07-25T14:41:12.344Z,36.80
2022-07-25T14:43:41.755Z,36.80
2022-07-25T14:46:18.330Z,36.70
2022-07-25T14:48:45.863Z,36.50
2022-07-25T14:51:17.840Z,36.50
2022-07-25T14:53:52.994Z,36.50
2022-07-25T14:56:20.659Z,36.40
2022-07-25T14:58:51.372Z,36.40
2022-07-25T15:01:20.904Z,36.20
2022-07-25T15:03:48.825Z,36.20
2022-07-25T15:06:18.913Z,36.10
2022-07-25T15:08:46.677Z,36.00
2022-07-25T15:11:14.088Z,36.00
2022-07-25T15:13:41.338Z,36.10
2022-07-25T15:16:08.782Z,36.10
2022-07-25T15:18:58.526Z,36.00
2022-07-25T15:21:24.351Z,36.00
2022-07-25T15:23:56.453Z,35.90
2022-07-25T15:26:23.974Z,35.80
2022-07-25T15:28:51.608Z,35.80
2022-07-25T15:31:20.821Z,35.80
2022-07-25T15:33:48.821Z,35.80
2022-07-25T15:36:16.194Z,35.80
2022-07-25T15:38:45.201Z,35.90
2022-07-25T15:41:13.117Z,35.80
2022-07-25T15:43:43.681Z,35.70
2022-07-25T15:46:12.475Z,35.70
2022-07-25T15:48:40.558Z,35.90
2022-07-25T15:51:08.220Z,36.10
2022-07-25T15:53:35.506Z,36.20
2022-07-25T15:56:07.481Z,36.20
2022-07-25T15:58:38.351Z,36.20
2022-07-25T16:05:08.366Z,36.60
2022-07-25T16:12:16.601Z,36.30
2022-07-25T16:14:47.831Z,36.20
2022-07-25T16:17:36.519Z,36.30
2022-07-25T16:20:06.759Z,36.30
2022-07-25T16:22:38.058Z,36.30
2022-07-25T16:25:05.786Z,36.30
2022-07-25T16:27:33.119Z,36.30
2022-07-25T16:30:01.721Z,36.40
2022-07-25T16:32:29.013Z,36.40
2022-07-25T16:34:56.271Z,36.30
2022-07-25T16:37:23.702Z,36.30
2022-07-25T16:39:51.188Z,36.40
2022-07-25T16:42:18.448Z,36.40
2022-07-25T16:44:47.704Z,36.30
2022-07-25T16:47:15.086Z,36.30
2022-07-25T16:49:42.696Z,36.30
2022-07-25T16:52:10.072Z,36.30
2022-07-25T16:54:37.818Z,36.20
2022-07-25T16:57:06.084Z,36.10
2022-07-25T16:59:33.429Z,36.20
2022-07-25T17:02:00.912Z,36.20
2022-07-25T17:04:29.574Z,36.10
2022-07-25T17:07:00.347Z,36.00
2022-07-25T17:09:34.625Z,36.00
2022-07-25T17:12:02.147Z,36.10
2022-07-25T17:14:30.422Z,36.10
2022-07-25T17:16:58.849Z,36.00
2022-07-25T17:19:26.735Z,36.00
2022-07-25T17:21:54.612Z,35.90
2022-07-25T17:24:26.360Z,35.80
2022-07-25T17:26:54.214Z,35.80
2022-07-25T17:29:21.755Z,35.90
2022-07-25T17:31:49.435Z,35.90
2022-07-25T17:34:16.753Z,35.90
2022-07-25T17:36:44.167Z,35.90
2022-07-25T17:39:11.536Z,35.90
2022-07-25T17:41:38.918Z,35.80
2022-07-25T17:44:11.423Z,35.80
2022-07-25T17:46:39.356Z,35.80
2022-07-25T17:49:06.831Z,35.80
2022-07-25T17:51:34.581Z,35.80
2022-07-25T17:54:01.825Z,35.70
2022-07-25T17:56:29.073Z,35.60
2022-07-25T17:58:56.313Z,35.60
2022-07-25T18:01:23.663Z,35.60
2022-07-25T18:03:51.093Z,35.50
2022-07-25T18:06:18.624Z,35.40
2022-07-25T18:08:46.385Z,35.20
2022-07-25T18:11:13.985Z,35.20
2022-07-25T18:13:41.333Z,35.10
2022-07-25T18:16:09.443Z,35.00
2022-07-25T18:18:37.371Z,34.90
2022-07-25T18:21:04.851Z,34.90
2022-07-25T18:23:32.212Z,34.80
2022-07-25T18:25:59.530Z,34.70
2022-07-25T18:28:26.873Z,34.70
2022-07-25T18:30:54.959Z,34.60
2022-07-25T18:33:22.289Z,34.50
2022-07-25T18:35:51.366Z,34.50
2022-07-25T18:38:18.765Z,34.50
2022-07-25T18:40:46.129Z,34.50
2022-07-25T18:43:13.769Z,34.40
2022-07-25T18:45:42.153Z,34.40
2022-07-25T18:48:10.044Z,34.40
2022-07-25T18:50:37.565Z,34.30
2022-07-25T18:53:05.415Z,34.30
2022-07-25T18:55:32.754Z,34.30
2022-07-25T18:58:00.068Z,34.30
2022-07-25T19:00:27.685Z,34.20
2022-07-25T19:02:54.931Z,34.20
2022-07-25T19:05:22.309Z,34.20
2022-07-25T19:07:49.666Z,34.10
2022-07-25T19:10:17.018Z,34.10
2022-07-25T19:12:44.374Z,34.10
2022-07-25T19:15:11.849Z,34.10
2022-07-25T19:17:39.434Z,34.10
2022-07-25T19:20:07.598Z,34.00
2022-07-25T19:22:35.026Z,34.00
2022-07-25T19:25:05.677Z,34.00
2022-07-25T19:27:33.128Z,34.00
2022-07-25T19:30:00.887Z,34.00
2022-07-25T19:32:28.150Z,34.00
2022-07-25T19:34:55.403Z,34.00
2022-07-25T19:37:22.740Z,33.80
2022-07-25T19:39:53.180Z,33.80
2022-07-25T19:42:21.380Z,33.70
2022-07-25T19:44:48.882Z,33.60
2022-07-25T19:47:16.161Z,33.60
2022-07-25T19:49:43.752Z,33.50
2022-07-25T19:52:11.481Z,33.50
2022-07-25T19:54:38.951Z,33.40
2022-07-25T19:57:07.050Z,33.30
2022-07-25T19:59:34.483Z,33.30
2022-07-25T20:02:03.478Z,33.30
2022-07-25T20:04:31.122Z,33.30
2022-07-25T20:07:02.119Z,32.90
2022-07-25T20:09:30.105Z,32.60
2022-07-25T20:11:58.009Z,32.50
2022-07-25T20:14:25.253Z,32.40
2022-07-25T20:16:52.574Z,32.40
2022-07-25T20:19:19.952Z,32.50
2022-07-25T20:21:48.639Z,32.40
2022-07-25T20:24:21.173Z,32.40
2022-07-25T20:26:49.280Z,32.40
2022-07-25T20:29:16.865Z,32.40
2022-07-25T20:31:45.066Z,32.40
2022-07-25T20:34:13.764Z,32.40
2022-07-25T20:36:42.893Z,32.40
2022-07-25T20:39:10.791Z,32.40
2022-07-25T20:41:39.094Z,32.40
2022-07-25T20:44:06.802Z,32.40
2022-07-25T20:46:36.228Z,32.40
2022-07-25T20:49:13.675Z,32.40
2022-07-25T20:51:41.322Z,32.50
2022-07-25T20:54:09.273Z,32.50
2022-07-25T20:56:36.573Z,32.50
2022-07-25T20:59:04.380Z,32.50
2022-07-25T21:01:32.250Z,32.60
2022-07-25T21:04:02.202Z,32.60
2022-07-25T21:06:34.994Z,32.70
2022-07-25T21:09:05.135Z,32.70
2022-07-25T21:11:32.738Z,32.70
2022-07-25T21:13:59.995Z,32.70
2022-07-25T21:16:28.118Z,32.30
2022-07-25T21:19:01.315Z,31.70
2022-07-25T21:21:29.162Z,31.40
2022-07-25T21:23:56.624Z,30.90
2022-07-25T21:26:26.960Z,30.50
2022-07-25T21:28:57.569Z,30.30
2022-07-25T21:31:30.818Z,30.00
2022-07-25T21:33:58.658Z,30.00
2022-07-25T21:36:26.048Z,29.90
2022-07-25T21:38:53.728Z,30.00
2022-07-25T21:41:21.178Z,29.90
2022-07-25T21:43:49.482Z,30.00
2022-07-25T21:46:17.261Z,30.10
2022-07-25T21:49:03.083Z,30.00
2022-07-25T21:51:40.352Z,30.00
2022-07-25T21:54:08.928Z,30.00
2022-07-25T21:56:36.610Z,29.90
2022-07-25T21:59:04.283Z,29.90
2022-07-25T22:01:31.837Z,29.90
2022-07-25T22:04:01.962Z,29.80
2022-07-25T22:06:35.770Z,29.80
2022-07-25T22:09:04.920Z,29.80
2022-07-25T22:11:52.311Z,29.60
2022-07-25T22:18:47.579Z,29.80
2022-07-25T22:21:44.109Z,30.00
2022-07-25T22:24:44.465Z,30.00
2022-07-25T22:27:14.161Z,30.00
2022-07-25T22:29:41.689Z,29.90
2022-07-25T22:32:10.110Z,29.90
2022-07-25T22:34:37.504Z,29.70
2022-07-25T22:37:05.066Z,29.10
2022-07-25T22:39:32.487Z,28.80
2022-07-25T22:41:59.991Z,28.60
2022-07-25T22:44:30.325Z,28.40
2022-07-25T22:46:57.703Z,28.30
2022-07-25T22:49:25.598Z,28.20
2022-07-25T22:51:54.313Z,28.30
2022-07-25T22:54:21.766Z,28.30
2022-07-25T22:56:49.311Z,28.10
2022-07-25T22:59:17.738Z,27.90
2022-07-25T23:01:45.348Z,27.90
2022-07-25T23:04:12.897Z,27.90
2022-07-25T23:06:40.337Z,27.90
2022-07-25T23:09:08.315Z,28.00
2022-07-25T23:11:36.098Z,28.20
2022-07-25T23:14:03.623Z,28.40
2022-07-25T23:16:31.061Z,28.60
2022-07-25T23:18:58.607Z,28.90
2022-07-25T23:21:29.244Z,28.90
2022-07-25T23:23:58.699Z,29.00
2022-07-25T23:26:27.996Z,29.10
2022-07-25T23:28:56.276Z,29.20
2022-07-25T23:31:23.865Z,29.20
2022-07-25T23:33:51.233Z,29.20
2022-07-25T23:36:18.492Z,29.20
2022-07-25T23:38:46.055Z,29.10
2022-07-25T23:41:13.586Z,29.20
2022-07-25T23:43:59.569Z,29.10
2022-07-25T23:46:29.472Z,29.10
2022-07-25T23:48:59.300Z,29.20
2022-07-25T23:51:27.094Z,29.20
2022-07-25T23:53:54.833Z,29.10
2022-07-25T23:56:22.355Z,29.10
2022-07-25T23:58:50.944Z,29.20
